Time;durP1;ratioP1;P1;durP2;ratioP2;P2;SDS_P1;SDS_P2;PMS_P1;PMS_P2;Temp;Humidity;BMP_temperature;BMP_pressure;BME280_temperature;BME280_humidity;BME280_pressure;Samples;Min_cycle;Max_cycle;Signal;HPM_P1;HPM_P2
2020/12/22 00:01:13;;;;;;;4.95;4.45;;;13.10;99.90;;;;;;5002045;28;20042;-77
2020/12/22 00:03:41;;;;;;;6.07;4.72;;;13.10;99.90;;;;;;5010113;28;20042;-77
2020/12/22 00:06:07;;;;;;;8.93;5.25;;;13.10;99.90;;;;;;5017554;28;20050;-77
2020/12/22 00:08:33;;;;;;;6.35;4.80;;;13.00;99.90;;;;;;5018544;28;20029;-76
2020/12/22 00:10:59;;;;;;;5.57;5.07;;;13.10;99.90;;;;;;5018647;28;20018;-77
2020/12/22 00:13:25;;;;;;;4.32;3.92;;;13.00;99.90;;;;;;5018598;28;20031;-77
2020/12/22 00:15:50;;;;;;;5.25;4.22;;;13.00;99.90;;;;;;5017096;28;20101;-77
2020/12/22 00:18:16;;;;;;;5.90;4.25;;;13.10;99.90;;;;;;5001882;28;20033;-77
2020/12/22 00:20:43;;;;;;;6.10;5.55;;;13.10;99.90;;;;;;5001990;28;20073;-77
2020/12/22 00:23:09;;;;;;;4.60;4.15;;;13.10;99.90;;;;;;5001642;28;20034;-78
2020/12/22 00:25:42;;;;;;;4.93;4.47;;;13.10;99.90;;;;;;5000873;28;20030;-78
2020/12/22 00:28:08;;;;;;;5.38;4.32;;;13.00;99.90;;;;;;5001316;28;20378;-77
2020/12/22 00:30:34;;;;;;;5.28;4.60;;;13.10;99.90;;;;;;4994131;28;20026;-77
2020/12/22 00:33:00;;;;;;;5.78;4.30;;;13.10;99.90;;;;;;5001386;28;20402;-77
2020/12/22 00:35:25;;;;;;;4.75;4.32;;;13.10;99.90;;;;;;4999709;28;20023;-77
2020/12/22 00:37:51;;;;;;;4.22;3.83;;;13.10;99.90;;;;;;5000543;28;20467;-76
2020/12/22 00:40:16;;;;;;;6.65;3.97;;;13.10;99.90;;;;;;5000961;28;20113;-78
2020/12/22 00:42:42;;;;;;;3.90;3.47;;;13.10;99.90;;;;;;5000755;28;20088;-77
2020/12/22 00:45:07;;;;;;;5.20;3.55;;;13.10;99.90;;;;;;4996813;28;20034;-77
2020/12/22 00:47:33;;;;;;;5.43;3.53;;;13.10;99.90;;;;;;4995132;28;20082;-78
2020/12/22 00:49:58;;;;;;;6.60;3.60;;;13.10;99.90;;;;;;4995915;28;20430;-77
2020/12/22 00:52:24;;;;;;;3.42;3.13;;;13.10;99.90;;;;;;4994859;28;20034;-78
2020/12/22 00:54:50;;;;;;;4.07;3.67;;;13.10;99.90;;;;;;4994554;28;20026;-79
2020/12/22 00:57:16;;;;;;;3.38;3.10;;;13.10;99.90;;;;;;4994535;28;20027;-79
2020/12/22 00:59:42;;;;;;;4.05;2.63;;;13.10;99.90;;;;;;4992900;28;20101;-78
2020/12/22 01:02:07;;;;;;;5.40;3.40;;;13.10;99.90;;;;;;4995867;28;20114;-79
2020/12/22 01:04:33;;;;;;;5.95;3.22;;;13.10;99.90;;;;;;4996974;28;20030;-78
2020/12/22 01:07:00;;;;;;;3.60;3.10;;;13.10;99.90;;;;;;4995446;28;20534;-76
2020/12/22 01:09:25;;;;;;;3.08;2.78;;;13.10;99.90;;;;;;4996155;28;20117;-77
2020/12/22 01:11:51;;;;;;;2.88;2.67;;;13.10;99.90;;;;;;4996377;28;20065;-76
2020/12/22 01:14:17;;;;;;;4.35;3.00;;;13.10;99.90;;;;;;4998429;28;22082;-77
2020/12/22 01:16:43;;;;;;;2.63;2.35;;;13.10;99.90;;;;;;5001129;28;20446;-76
2020/12/22 01:19:08;;;;;;;2.50;2.30;;;13.20;99.90;;;;;;4997543;28;20096;-76
2020/12/22 01:21:34;;;;;;;7.88;3.38;;;13.20;99.90;;;;;;4997204;28;20398;-77
2020/12/22 01:24:00;;;;;;;4.15;2.92;;;13.10;99.90;;;;;;4995178;28;20031;-77
2020/12/22 01:26:26;;;;;;;2.40;2.30;;;13.10;99.90;;;;;;4995105;28;20436;-77
2020/12/22 01:28:53;;;;;;;3.10;2.38;;;13.10;99.90;;;;;;4997917;28;20112;-77
2020/12/22 01:31:27;;;;;;;2.80;2.45;;;13.10;99.90;;;;;;4996447;28;20399;-77
2020/12/22 01:33:53;;;;;;;1.95;1.85;;;13.10;99.90;;;;;;4994423;28;20092;-77
2020/12/22 01:36:20;;;;;;;3.70;1.98;;;13.10;99.90;;;;;;4995958;28;20034;-77
2020/12/22 01:38:47;;;;;;;1.60;1.50;;;13.20;99.90;;;;;;4998326;28;20018;-78
2020/12/22 01:41:13;;;;;;;1.95;1.85;;;13.20;99.90;;;;;;4994221;28;20042;-77
2020/12/22 01:43:39;;;;;;;1.65;1.55;;;13.10;99.90;;;;;;4981520;28;20570;-77
2020/12/22 01:46:05;;;;;;;1.77;1.58;;;13.10;99.90;;;;;;4998184;28;20085;-78
2020/12/22 01:48:32;;;;;;;2.20;1.95;;;13.20;99.90;;;;;;5002415;28;20038;-77
2020/12/22 01:50:58;;;;;;;4.80;2.08;;;13.20;99.90;;;;;;5007130;28;20031;-79
2020/12/22 01:53:24;;;;;;;2.00;1.90;;;13.20;99.90;;;;;;5002027;28;20053;-77
2020/12/22 01:55:49;;;;;;;2.20;1.83;;;13.20;99.90;;;;;;5002691;28;20010;-76
2020/12/22 01:58:15;;;;;;;1.75;1.50;;;13.20;99.90;;;;;;5005097;28;20019;-77
2020/12/22 02:00:43;;;;;;;2.28;1.80;;;13.10;99.90;;;;;;4998226;28;20034;-77
2020/12/22 02:03:09;;;;;;;3.30;1.98;;;13.20;99.90;;;;;;5004070;28;20023;-77
2020/12/22 02:05:38;;;;;;;2.15;1.20;;;13.20;99.90;;;;;;4999583;28;20034;-78
2020/12/22 02:08:04;;;;;;;1.38;1.27;;;13.20;99.90;;;;;;4994915;28;20536;-76
2020/12/22 02:10:30;;;;;;;1.70;1.60;;;13.10;99.90;;;;;;4996731;28;20042;-76
2020/12/22 02:12:56;;;;;;;2.65;1.50;;;13.20;99.90;;;;;;4998232;28;20046;-77
2020/12/22 02:15:21;;;;;;;1.30;1.25;;;13.20;99.90;;;;;;5003728;28;20489;-77
2020/12/22 02:17:47;;;;;;;3.38;1.25;;;13.20;99.90;;;;;;4999114;28;20121;-76
2020/12/22 02:20:12;;;;;;;1.75;1.45;;;13.10;99.90;;;;;;5000073;28;20066;-77
2020/12/22 02:22:39;;;;;;;1.65;1.40;;;13.20;99.90;;;;;;5002456;28;20457;-78
2020/12/22 02:25:17;;;;;;;1.65;1.48;;;13.20;99.90;;;;;;5003811;28;20045;-77
2020/12/22 02:27:44;;;;;;;1.92;1.83;;;13.10;99.90;;;;;;5017792;28;20039;-78
2020/12/22 02:30:10;;;;;;;3.25;1.77;;;13.10;99.90;;;;;;5016530;28;20050;-78
2020/12/22 02:32:35;;;;;;;2.78;1.98;;;13.20;99.90;;;;;;5015713;28;20081;-77
2020/12/22 02:35:03;;;;;;;2.92;1.90;;;13.20;99.90;;;;;;5018151;28;20042;-77
2020/12/22 02:37:28;;;;;;;3.20;1.75;;;13.20;99.90;;;;;;5017391;28;20034;-78
2020/12/22 02:39:54;;;;;;;2.55;1.67;;;13.20;99.90;;;;;;5017217;28;20033;-78
2020/12/22 02:42:20;;;;;;;4.03;1.70;;;13.20;99.90;;;;;;5003680;28;20027;-78
2020/12/22 02:44:45;;;;;;;4.22;1.58;;;13.20;99.90;;;;;;4996896;28;20019;-77
2020/12/22 02:47:13;;;;;;;4.65;1.80;;;13.10;99.90;;;;;;4996738;28;20551;-76
2020/12/22 02:49:40;;;;;;;4.63;1.40;;;13.10;99.90;;;;;;4983717;28;20070;-77
2020/12/22 02:52:06;;;;;;;1.65;1.27;;;13.10;99.90;;;;;;4982929;28;20047;-77
2020/12/22 02:54:32;;;;;;;1.45;0.90;;;13.20;99.90;;;;;;5004976;28;20090;-78
2020/12/22 02:56:58;;;;;;;1.20;1.10;;;13.20;99.90;;;;;;5002057;28;20029;-77
2020/12/22 02:59:23;;;;;;;1.20;1.08;;;13.20;99.90;;;;;;5003306;28;20019;-78
2020/12/22 03:01:49;;;;;;;3.83;1.00;;;13.20;99.90;;;;;;5000211;28;20042;-76
2020/12/22 03:04:14;;;;;;;2.85;0.80;;;13.20;99.90;;;;;;5001564;28;20062;-78
2020/12/22 03:06:40;;;;;;;2.78;0.88;;;13.20;99.90;;;;;;5001691;28;20434;-79
2020/12/22 03:09:07;;;;;;;3.80;0.80;;;13.20;99.90;;;;;;4998931;28;20038;-77
2020/12/22 03:11:33;;;;;;;1.43;1.30;;;13.20;99.90;;;;;;4999933;28;20478;-78
2020/12/22 03:13:58;;;;;;;3.65;0.93;;;13.20;99.90;;;;;;4997756;28;20281;-76
2020/12/22 03:16:24;;;;;;;2.90;1.00;;;13.30;99.90;;;;;;4996986;28;20046;-76
2020/12/22 03:18:50;;;;;;;4.18;1.02;;;13.30;99.90;;;;;;4997767;28;20030;-77
2020/12/22 03:21:16;;;;;;;3.97;1.27;;;13.30;99.90;;;;;;4997172;28;20038;-76
2020/12/22 03:23:42;;;;;;;4.22;1.15;;;13.20;99.90;;;;;;4995953;28;20042;-77
2020/12/22 03:26:08;;;;;;;8.40;1.50;;;13.30;99.90;;;;;;4997651;28;20046;-76
2020/12/22 03:28:34;;;;;;;5.63;2.53;;;13.20;99.90;;;;;;4997130;28;20378;-76
2020/12/22 03:30:59;;;;;;;9.48;1.38;;;13.20;99.90;;;;;;4996845;28;20061;-76
2020/12/22 03:33:25;;;;;;;8.63;1.55;;;13.30;99.90;;;;;;4996290;28;20042;-77
2020/12/22 03:35:51;;;;;;;4.90;2.65;;;13.30;99.90;;;;;;4994939;28;20018;-77
2020/12/22 03:38:16;;;;;;;6.03;1.35;;;13.30;99.90;;;;;;4996287;28;20026;-77
2020/12/22 03:40:42;;;;;;;3.13;1.30;;;13.30;99.90;;;;;;4996168;28;20022;-76
2020/12/22 03:43:08;;;;;;;9.27;1.42;;;13.30;99.90;;;;;;4997000;28;20030;-76
2020/12/22 03:45:36;;;;;;;7.68;1.13;;;13.30;99.90;;;;;;4994785;28;20038;-77
2020/12/22 03:48:01;;;;;;;6.72;1.25;;;13.40;99.90;;;;;;4996706;28;20049;-77
2020/12/22 03:50:27;;;;;;;6.93;1.20;;;13.30;99.90;;;;;;4996850;28;20018;-76
2020/12/22 03:52:52;;;;;;;4.25;1.00;;;13.30;99.90;;;;;;4996306;28;20038;-77
2020/12/22 03:55:19;;;;;;;11.10;1.58;;;13.30;99.90;;;;;;4996730;28;20026;-76
2020/12/22 03:57:45;;;;;;;9.70;1.27;;;13.30;99.90;;;;;;4996682;28;20022;-76
2020/12/22 04:00:13;;;;;;;11.98;1.80;;;13.30;99.90;;;;;;4997293;28;20076;-76
2020/12/22 04:02:39;;;;;;;5.47;1.27;;;13.30;99.90;;;;;;4994786;28;20104;-76
2020/12/22 04:05:05;;;;;;;7.78;1.73;;;13.40;99.90;;;;;;4996644;28;20063;-76
2020/12/22 04:07:30;;;;;;;12.40;1.58;;;13.30;99.90;;;;;;4995882;28;20018;-76
2020/12/22 04:09:56;;;;;;;5.60;1.30;;;13.30;99.90;;;;;;4995821;28;20402;-76
2020/12/22 04:12:21;;;;;;;12.45;2.05;;;13.30;99.90;;;;;;4995804;28;20038;-76
2020/12/22 04:14:47;;;;;;;4.75;1.45;;;13.30;99.90;;;;;;4995420;28;20086;-76
2020/12/22 04:17:13;;;;;;;6.32;1.20;;;13.30;99.90;;;;;;4995650;28;20075;-75
2020/12/22 04:19:38;;;;;;;5.30;1.10;;;13.30;99.90;;;;;;4996544;28;20068;-76
2020/12/22 04:22:04;;;;;;;7.82;2.28;;;13.40;99.90;;;;;;4994525;28;20486;-76
2020/12/22 04:24:29;;;;;;;4.80;1.17;;;13.40;99.90;;;;;;4995317;28;20030;-76
2020/12/22 04:26:55;;;;;;;5.78;1.40;;;13.40;99.90;;;;;;4979766;28;20038;-77
2020/12/22 04:29:20;;;;;;;5.95;1.10;;;13.40;99.90;;;;;;4986725;28;20377;-77
2020/12/22 04:31:46;;;;;;;6.10;1.23;;;13.40;99.90;;;;;;4978390;28;20154;-77
2020/12/22 04:34:12;;;;;;;5.40;1.40;;;13.40;99.90;;;;;;4995412;28;20031;-76
2020/12/22 04:36:37;;;;;;;4.07;1.20;;;13.40;99.90;;;;;;4990026;28;20033;-76
2020/12/22 04:39:04;;;;;;;4.13;1.48;;;13.40;99.90;;;;;;4982759;28;20041;-77
2020/12/22 04:41:31;;;;;;;5.57;1.38;;;13.40;99.90;;;;;;4975517;28;20027;-76
2020/12/22 04:43:56;;;;;;;3.75;1.10;;;13.40;99.90;;;;;;4994776;28;20030;-77
2020/12/22 04:46:23;;;;;;;3.47;1.00;;;13.40;99.90;;;;;;4984013;28;20045;-77
2020/12/22 04:48:56;;;;;;;6.18;1.45;;;13.30;99.90;;;;;;4995337;28;20125;-76
2020/12/22 04:51:23;;;;;;;6.47;1.33;;;13.30;99.90;;;;;;4990649;28;20054;-76
2020/12/22 04:53:49;;;;;;;6.78;1.20;;;13.20;99.90;;;;;;4995225;28;20032;-77
2020/12/22 04:56:16;;;;;;;9.50;1.38;;;13.20;99.90;;;;;;5003338;28;20546;-77
2020/12/22 04:58:42;;;;;;;5.60;1.10;;;13.30;99.90;;;;;;5009676;28;20034;-77
2020/12/22 05:01:07;;;;;;;2.75;0.80;;;13.20;99.90;;;;;;5010368;28;20023;-76
2020/12/22 05:03:33;;;;;;;8.68;1.15;;;13.20;99.90;;;;;;5009883;28;20033;-76
2020/12/22 05:05:59;;;;;;;8.77;1.67;;;13.20;99.90;;;;;;5009558;28;20042;-77
2020/12/22 05:08:25;;;;;;;14.23;1.30;;;13.20;99.90;;;;;;5014897;28;20069;-78
2020/12/22 05:10:51;;;;;;;10.38;1.55;;;13.20;99.90;;;;;;5005774;28;20018;-77
2020/12/22 05:13:19;;;;;;;3.80;1.58;;;13.20;99.90;;;;;;5017697;28;20046;-77
2020/12/22 05:15:49;;;;;;;3.67;1.25;;;13.20;99.90;;;;;;5007921;28;20043;-77
2020/12/22 05:18:14;;;;;;;6.28;1.63;;;13.20;99.90;;;;;;5012546;28;20022;-77
2020/12/22 05:20:45;;;;;;;5.85;1.25;;;13.20;99.90;;;;;;5000654;28;20060;-77
2020/12/22 05:23:18;;;;;;;8.48;1.50;;;13.20;99.90;;;;;;4992502;28;20029;-77
2020/12/22 05:25:47;;;;;;;9.73;1.23;;;13.30;99.90;;;;;;4988532;28;20467;-77
2020/12/22 05:28:17;;;;;;;6.30;1.10;;;13.30;99.90;;;;;;4984132;28;20034;-76
2020/12/22 05:30:44;;;;;;;8.88;1.30;;;13.20;99.90;;;;;;4995206;28;20375;-76
2020/12/22 05:33:10;;;;;;;10.15;1.50;;;13.30;99.90;;;;;;4990041;28;20038;-76
2020/12/22 05:35:37;;;;;;;7.65;1.38;;;13.20;99.90;;;;;;4991364;28;20073;-76
2020/12/22 05:38:06;;;;;;;7.93;1.47;;;13.20;99.90;;;;;;4995781;28;20030;-76
2020/12/22 05:40:38;;;;;;;8.40;1.42;;;13.30;99.90;;;;;;4993847;28;20022;-76
2020/12/22 05:43:04;;;;;;;8.55;1.50;;;13.30;99.90;;;;;;4992764;28;20042;-76
2020/12/22 05:45:34;;;;;;;10.93;1.42;;;13.20;99.90;;;;;;4988282;28;20073;-76
2020/12/22 05:48:00;;;;;;;6.82;1.33;;;13.30;99.90;;;;;;4972165;28;20122;-76
2020/12/22 05:50:26;;;;;;;4.95;1.20;;;13.30;99.90;;;;;;4985250;28;20048;-75
2020/12/22 05:52:54;;;;;;;8.98;1.83;;;13.30;99.90;;;;;;4986586;28;20066;-76
2020/12/22 05:55:27;;;;;;;8.48;2.10;;;13.30;99.90;;;;;;4981605;28;20030;-76
2020/12/22 05:58:14;;;;;;;7.78;1.63;;;13.30;99.90;;;;;;4973708;28;20558;-76
2020/12/22 06:00:42;;;;;;;7.63;1.05;;;13.20;99.90;;;;;;4976838;28;20023;-76
2020/12/22 06:03:13;;;;;;;7.40;1.35;;;13.20;99.90;;;;;;4973121;28;20038;-76
2020/12/22 06:05:40;;;;;;;6.75;1.73;;;13.20;99.90;;;;;;4973995;28;20388;-77
2020/12/22 06:08:10;;;;;;;9.93;1.35;;;13.20;99.90;;;;;;4979418;28;20427;-76
2020/12/22 06:10:37;;;;;;;11.75;1.52;;;13.20;99.90;;;;;;4984419;28;20031;-76
2020/12/22 06:13:05;;;;;;;13.93;2.67;;;13.10;99.90;;;;;;4975985;28;20042;-77
2020/12/22 06:15:32;;;;;;;11.05;1.27;;;13.20;99.90;;;;;;4990031;28;20395;-76
2020/12/22 06:17:58;;;;;;;7.60;1.55;;;13.20;99.90;;;;;;4980079;28;20499;-76
2020/12/22 06:20:25;;;;;;;7.63;2.08;;;13.20;99.90;;;;;;4981812;28;20402;-76
2020/12/22 06:22:59;;;;;;;7.57;1.92;;;13.20;99.90;;;;;;4984592;28;20496;-77
2020/12/22 06:25:24;;;;;;;10.75;1.50;;;13.20;99.90;;;;;;4987139;28;20048;-76
2020/12/22 06:27:50;;;;;;;4.75;1.17;;;13.20;99.90;;;;;;4998052;28;20466;-76
2020/12/22 06:30:17;;;;;;;4.90;1.60;;;13.20;99.90;;;;;;4988730;28;20118;-77
2020/12/22 06:32:43;;;;;;;6.40;1.10;;;13.20;99.90;;;;;;4984500;28;20471;-76
2020/12/22 06:35:29;;;;;;;10.48;1.42;;;13.20;99.90;;;;;;4996213;28;20019;-76
2020/12/22 06:37:55;;;;;;;9.73;1.75;;;13.20;99.90;;;;;;4987279;28;20030;-77
2020/12/22 06:40:53;;;;;;;8.13;1.23;;;13.10;99.90;;;;;;4991120;28;20037;-77
2020/12/22 06:43:41;;;;;;;11.80;2.28;;;13.10;99.90;;;;;;4982524;28;20037;-78
2020/12/22 06:46:09;;;;;;;5.07;1.73;;;13.10;99.90;;;;;;5026211;28;20038;-76
2020/12/22 06:48:45;;;;;;;4.68;1.52;;;13.00;99.90;;;;;;4989994;28;20089;-77
2020/12/22 06:51:22;;;;;;;6.97;1.35;;;13.10;99.90;;;;;;4991650;28;20471;-78
2020/12/22 06:53:48;;;;;;;11.15;3.10;;;13.10;99.90;;;;;;4983821;28;20026;-77
2020/12/22 06:56:13;;;;;;;8.13;1.65;;;13.10;99.90;;;;;;4990735;28;20513;-77
2020/12/22 06:58:47;;;;;;;9.90;1.40;;;13.10;99.90;;;;;;4988223;28;20084;-78
2020/12/22 07:01:33;;;;;;;9.40;1.35;;;13.10;99.90;;;;;;4992034;28;20041;-78
2020/12/22 07:04:23;;;;;;;7.45;1.08;;;13.10;99.90;;;;;;4994542;28;20041;-77
2020/12/22 07:07:02;;;;;;;10.73;2.15;;;13.00;99.90;;;;;;4981648;28;20027;-77
2020/12/22 07:09:33;;;;;;;7.65;1.55;;;13.10;99.90;;;;;;4992592;28;20460;-78
2020/12/22 07:12:10;;;;;;;10.63;1.42;;;13.00;99.90;;;;;;4989536;28;20042;-78
2020/12/22 07:14:49;;;;;;;12.77;3.08;;;13.00;99.90;;;;;;4990922;28;20073;-77
2020/12/22 07:17:22;;;;;;;6.65;1.98;;;13.00;99.90;;;;;;4993134;28;20038;-78
2020/12/22 07:19:51;;;;;;;7.82;1.40;;;13.00;99.90;;;;;;4993500;28;20034;-78
2020/12/22 07:22:17;;;;;;;8.13;1.23;;;12.90;99.90;;;;;;4996709;28;20030;-78
2020/12/22 07:24:44;;;;;;;6.35;1.65;;;12.80;99.90;;;;;;5007197;28;20034;-79
2020/12/22 07:27:10;;;;;;;11.25;2.05;;;12.80;99.90;;;;;;5009958;28;20029;-80
2020/12/22 07:29:37;;;;;;;19.63;2.45;;;12.80;99.90;;;;;;5011071;28;20042;-80
2020/12/22 07:32:04;;;;;;;12.50;3.17;;;12.80;99.90;;;;;;5017774;28;20030;-80
2020/12/22 07:34:31;;;;;;;14.75;2.40;;;12.80;99.90;;;;;;5010071;28;20033;-80
2020/12/22 07:37:12;;;;;;;6.43;1.17;;;12.70;99.90;;;;;;5019430;28;20038;-80
2020/12/22 07:39:39;;;;;;;7.55;1.58;;;12.70;99.90;;;;;;5011804;28;20015;-81
2020/12/22 07:42:31;;;;;;;14.77;2.00;;;12.70;99.90;;;;;;5014216;28;20034;-80
2020/12/22 07:45:06;;;;;;;11.40;2.50;;;12.70;99.90;;;;;;5012940;28;20403;-80
2020/12/22 07:47:34;;;;;;;15.18;1.67;;;12.70;99.90;;;;;;4992116;28;20031;-80
2020/12/22 07:50:16;;;;;;;8.70;1.70;;;12.70;99.90;;;;;;4993570;28;20036;-79
2020/12/22 07:52:42;;;;;;;11.48;1.85;;;12.70;99.90;;;;;;5001657;28;20086;-80
2020/12/22 07:55:09;;;;;;;11.38;2.75;;;12.80;99.90;;;;;;4993254;28;20486;-79
2020/12/22 07:57:39;;;;;;;15.02;2.00;;;12.70;99.90;;;;;;4988171;28;20114;-80
2020/12/22 08:00:07;;;;;;;7.03;1.30;;;12.80;99.90;;;;;;4995092;28;20093;-80
2020/12/22 08:02:33;;;;;;;7.78;2.13;;;12.80;99.90;;;;;;4985599;28;20057;-80
2020/12/22 08:05:10;;;;;;;14.43;1.70;;;12.80;99.90;;;;;;4976306;28;20517;-80
2020/12/22 08:07:38;;;;;;;14.32;2.35;;;12.90;99.90;;;;;;4993980;28;20077;-79
2020/12/22 08:10:24;;;;;;;16.00;1.70;;;12.90;99.90;;;;;;4994625;28;20077;-81
2020/12/22 08:12:53;;;;;;;25.05;2.78;;;12.90;99.90;;;;;;4993806;28;20022;-80
2020/12/22 08:15:19;;;;;;;15.15;1.98;;;13.00;99.90;;;;;;4990204;28;20022;-80
2020/12/22 08:17:48;;;;;;;13.18;2.13;;;13.00;99.90;;;;;;4976589;28;20070;-79
2020/12/22 08:20:15;;;;;;;15.70;1.98;;;12.90;99.90;;;;;;4982379;28;20034;-80
2020/12/22 08:22:44;;;;;;;25.80;2.33;;;12.90;99.90;;;;;;4994370;28;20109;-80
2020/12/22 08:25:11;;;;;;;22.23;2.58;;;12.90;99.90;;;;;;4994065;28;20035;-80
2020/12/22 08:27:36;;;;;;;10.52;3.13;;;12.80;99.90;;;;;;4981693;28;20035;-81
2020/12/22 08:30:19;;;;;;;17.23;2.70;;;12.70;99.90;;;;;;4980128;28;20384;-81
2020/12/22 08:32:45;;;;;;;14.10;3.28;;;12.80;99.90;;;;;;4994471;28;20023;-81
2020/12/22 08:35:11;;;;;;;24.60;3.17;;;12.70;99.90;;;;;;4990661;28;20542;-81
2020/12/22 08:37:37;;;;;;;23.00;3.10;;;12.60;99.90;;;;;;4987727;28;20029;-81
2020/12/22 08:40:04;;;;;;;25.23;3.08;;;12.60;99.90;;;;;;4983542;28;20094;-81
2020/12/22 08:42:30;;;;;;;21.92;3.03;;;12.60;99.90;;;;;;4988184;28;20027;-80
2020/12/22 08:44:56;;;;;;;18.25;2.78;;;12.60;99.90;;;;;;4983349;28;20030;-80
2020/12/22 08:47:22;;;;;;;24.52;3.65;;;12.60;99.90;;;;;;4986600;28;20030;-80
2020/12/22 08:49:49;;;;;;;18.13;2.92;;;12.60;99.90;;;;;;4984961;28;20041;-80
2020/12/22 08:52:17;;;;;;;38.95;3.55;;;12.60;99.90;;;;;;4992254;28;20420;-81
2020/12/22 08:54:45;;;;;;;17.67;2.92;;;12.60;99.90;;;;;;4994064;28;20026;-79
2020/12/22 08:57:12;;;;;;;20.33;3.85;;;12.50;99.90;;;;;;5004118;28;20077;-80
2020/12/22 08:59:38;;;;;;;16.98;2.60;;;12.60;99.90;;;;;;4991096;28;20102;-81
2020/12/22 09:02:04;;;;;;;23.15;3.20;;;12.60;99.90;;;;;;4995679;28;20041;-81
2020/12/22 09:04:32;;;;;;;19.58;3.10;;;12.60;99.90;;;;;;4993336;28;20490;-83
2020/12/22 09:06:58;;;;;;;20.60;3.33;;;12.60;99.90;;;;;;4993069;28;20037;-82
2020/12/22 09:09:30;;;;;;;29.02;4.50;;;12.50;99.90;;;;;;4994216;28;20109;-82
2020/12/22 09:12:10;;;;;;;24.58;3.47;;;12.50;99.90;;;;;;4992363;28;20133;-81
2020/12/22 09:14:43;;;;;;;34.38;7.10;;;12.50;99.90;;;;;;4993666;28;20022;-83
2020/12/22 09:17:25;;;;;;;27.70;4.45;;;12.40;99.90;;;;;;4996002;28;20502;-82
2020/12/22 09:19:52;;;;;;;24.00;4.65;;;12.50;99.90;;;;;;4995404;28;20030;-81
2020/12/22 09:22:23;;;;;;;17.73;3.10;;;12.30;99.90;;;;;;4987891;28;20066;-82
2020/12/22 09:25:00;;;;;;;20.48;3.20;;;12.30;99.90;;;;;;4993762;28;20084;-84
2020/12/22 09:27:41;;;;;;;18.75;2.30;;;12.20;99.90;;;;;;4987132;28;20034;-83
2020/12/22 09:30:11;;;;;;;11.23;2.00;;;12.10;99.90;;;;;;4979083;28;20396;-83
2020/12/22 09:32:36;;;;;;;8.07;1.77;;;12.00;99.90;;;;;;4975203;28;20558;-84
2020/12/22 09:35:03;;;;;;;8.23;1.60;;;12.10;99.90;;;;;;4980036;28;20052;-84
2020/12/22 09:37:28;;;;;;;10.60;1.92;;;12.10;99.90;;;;;;4992392;28;20082;-84
2020/12/22 09:39:54;;;;;;;19.50;2.85;;;12.00;99.90;;;;;;4995311;28;20080;-85
2020/12/22 09:42:22;;;;;;;15.52;3.35;;;12.00;99.90;;;;;;4995807;28;20034;-84
2020/12/22 09:44:48;;;;;;;19.38;2.95;;;12.00;99.90;;;;;;4994717;28;20023;-83
2020/12/22 09:47:14;;;;;;;19.80;2.53;;;12.10;99.90;;;;;;4989174;28;20134;-84
2020/12/22 09:49:40;;;;;;;18.67;2.72;;;12.10;99.90;;;;;;5007542;28;20081;-84
2020/12/22 09:52:06;;;;;;;16.58;2.15;;;12.00;99.90;;;;;;5011379;28;20487;-84
2020/12/22 09:54:32;;;;;;;13.60;2.30;;;11.90;99.90;;;;;;5014139;28;20023;-84
2020/12/22 09:56:57;;;;;;;13.18;1.95;;;11.70;99.90;;;;;;5011749;28;20101;-84
2020/12/22 09:59:24;;;;;;;15.13;2.30;;;11.70;99.90;;;;;;4994806;28;20073;-84
2020/12/22 10:01:51;;;;;;;11.95;2.95;;;11.50;99.90;;;;;;5002233;28;20034;-81
2020/12/22 10:04:17;;;;;;;7.63;2.45;;;11.40;99.90;;;;;;4997887;28;20038;-83
2020/12/22 10:06:43;;;;;;;8.65;2.58;;;11.30;99.90;;;;;;4978624;28;20034;-82
2020/12/22 10:09:10;;;;;;;12.52;2.40;;;11.30;99.90;;;;;;4979072;28;20046;-81
2020/12/22 10:11:36;;;;;;;19.50;2.88;;;11.30;99.90;;;;;;4975847;28;20026;-81
2020/12/22 10:14:04;;;;;;;11.93;2.15;;;11.30;99.90;;;;;;4982476;28;20109;-81
2020/12/22 10:16:30;;;;;;;14.57;3.00;;;11.20;99.90;;;;;;4991594;28;20042;-83
2020/12/22 10:18:56;;;;;;;10.02;2.40;;;11.10;99.90;;;;;;4990883;28;20475;-83
2020/12/22 10:21:22;;;;;;;11.85;1.92;;;11.00;99.90;;;;;;4993626;28;20023;-83
2020/12/22 10:23:49;;;;;;;9.15;2.33;;;11.00;99.90;;;;;;4992228;28;20038;-83
2020/12/22 10:26:16;;;;;;;7.38;1.65;;;10.90;99.90;;;;;;4988270;28;20026;-80
2020/12/22 10:28:43;;;;;;;4.72;2.08;;;10.90;99.90;;;;;;4991350;28;20022;-80
2020/12/22 10:31:15;;;;;;;12.07;2.55;;;10.80;99.90;;;;;;4991438;28;20033;-81
2020/12/22 10:33:41;;;;;;;14.50;4.03;;;10.80;99.90;;;;;;4990796;28;20027;-80
2020/12/22 10:36:11;;;;;;;18.00;3.35;;;10.80;99.90;;;;;;4984200;28;20034;-80
2020/12/22 10:38:36;;;;;;;11.57;4.03;;;10.70;99.90;;;;;;4971913;28;20022;-80
2020/12/22 10:41:02;;;;;;;9.90;4.82;;;10.60;99.90;;;;;;4987509;28;20122;-81
2020/12/22 10:43:28;;;;;;;17.73;5.05;;;10.60;99.90;;;;;;4981883;28;20026;-81
2020/12/22 10:45:53;;;;;;;13.82;4.50;;;10.60;99.90;;;;;;4978340;28;20061;-82
2020/12/22 10:48:19;;;;;;;10.32;4.65;;;10.60;99.90;;;;;;4985933;28;20029;-80
2020/12/22 10:50:44;;;;;;;10.90;4.93;;;10.60;99.90;;;;;;4992856;28;20113;-81
2020/12/22 10:53:10;;;;;;;11.63;4.90;;;10.60;99.90;;;;;;4987808;28;20410;-81
2020/12/22 10:55:36;;;;;;;12.05;4.00;;;10.70;99.90;;;;;;4991871;28;20541;-81
2020/12/22 10:58:03;;;;;;;9.32;4.05;;;10.60;99.90;;;;;;4991998;28;20106;-81
2020/12/22 11:00:28;;;;;;;13.85;4.70;;;10.70;99.90;;;;;;4986175;28;20030;-83
2020/12/22 11:02:55;;;;;;;14.73;4.20;;;10.60;99.90;;;;;;4987139;28;20172;-82
2020/12/22 11:08:07;;;;;;;15.10;4.65;;;10.90;99.90;;;;;;4991394;28;20045;-80
2020/12/22 11:10:33;;;;;;;9.82;4.30;;;10.80;99.90;;;;;;4994412;28;20101;-80
2020/12/22 11:12:58;;;;;;;10.15;4.18;;;10.80;99.90;;;;;;5008102;28;20038;-80
2020/12/22 11:15:24;;;;;;;13.95;4.50;;;10.80;99.90;;;;;;4995272;28;20026;-80
2020/12/22 11:17:50;;;;;;;14.07;4.50;;;10.90;99.90;;;;;;5004985;28;20026;-80
2020/12/22 11:20:16;;;;;;;12.00;4.40;;;11.00;99.90;;;;;;4996558;28;20084;-80
2020/12/22 11:22:42;;;;;;;8.50;4.10;;;11.00;99.90;;;;;;5008259;28;20113;-80
2020/12/22 11:25:07;;;;;;;12.48;3.70;;;11.00;99.90;;;;;;5001088;28;20485;-80
2020/12/22 11:27:33;;;;;;;11.57;3.28;;;11.00;99.90;;;;;;4989035;28;20031;-80
2020/12/22 11:29:58;;;;;;;4.97;2.72;;;11.00;99.90;;;;;;4998110;28;20093;-80
2020/12/22 11:32:24;;;;;;;12.02;3.65;;;10.90;99.90;;;;;;4999738;28;20058;-80
2020/12/22 11:34:49;;;;;;;7.38;3.55;;;10.80;99.90;;;;;;4996889;28;20015;-80
2020/12/22 11:37:15;;;;;;;8.02;3.15;;;10.80;99.90;;;;;;5005963;28;20054;-80
2020/12/22 11:39:41;;;;;;;14.57;3.78;;;10.80;99.90;;;;;;5000149;28;20479;-80
2020/12/22 11:42:06;;;;;;;8.73;4.10;;;10.90;99.90;;;;;;4997883;28;20509;-80
2020/12/22 11:44:32;;;;;;;12.13;3.42;;;11.00;99.90;;;;;;5007794;28;20153;-81
2020/12/22 11:46:58;;;;;;;6.18;3.03;;;11.10;99.90;;;;;;5001088;28;20398;-81
2020/12/22 11:49:24;;;;;;;14.02;2.60;;;11.20;99.90;;;;;;5001790;28;20034;-80
2020/12/22 11:51:59;;;;;;;10.85;2.38;;;11.20;99.90;;;;;;5007816;28;20121;-80
2020/12/22 11:54:25;;;;;;;8.27;2.95;;;11.20;99.90;;;;;;4996929;28;20022;-80
2020/12/22 11:56:51;;;;;;;10.15;3.53;;;11.20;99.90;;;;;;4993551;28;20459;-80
2020/12/22 11:59:18;;;;;;;4.95;3.30;;;11.20;99.90;;;;;;4994816;28;20047;-80
2020/12/22 12:01:44;;;;;;;12.27;3.40;;;11.30;99.90;;;;;;4999684;28;20058;-80
2020/12/22 12:04:12;;;;;;;7.13;3.25;;;11.30;99.90;;;;;;5011708;28;20502;-80
2020/12/22 12:06:44;;;;;;;14.23;3.83;;;11.20;99.90;;;;;;5006776;28;20053;-80
2020/12/22 12:09:09;;;;;;;18.67;3.92;;;11.20;99.90;;;;;;5013264;28;20050;-81
2020/12/22 12:11:35;;;;;;;6.00;3.25;;;11.20;99.90;;;;;;5004371;28;20033;-81
2020/12/22 12:14:00;;;;;;;11.32;3.38;;;11.20;99.90;;;;;;5016884;28;20046;-80
2020/12/22 12:16:26;;;;;;;11.55;4.05;;;11.30;99.90;;;;;;5017080;28;20022;-80
2020/12/22 12:18:51;;;;;;;9.93;3.58;;;11.30;99.90;;;;;;5012307;28;20015;-80
2020/12/22 12:21:18;;;;;;;8.18;3.50;;;11.20;99.90;;;;;;5003169;28;20572;-80
2020/12/22 12:23:44;;;;;;;25.45;3.38;;;11.20;99.90;;;;;;4996298;28;20034;-80
2020/12/22 12:26:11;;;;;;;11.57;3.63;;;11.20;99.90;;;;;;4994443;28;20026;-80
2020/12/22 12:28:41;;;;;;;13.55;3.08;;;11.40;99.90;;;;;;4996676;28;20022;-79
2020/12/22 12:31:11;;;;;;;13.23;3.88;;;11.40;99.90;;;;;;4995080;28;20386;-80
2020/12/22 12:33:37;;;;;;;9.57;3.03;;;11.30;99.90;;;;;;4996833;28;20032;-80
2020/12/22 12:36:03;;;;;;;6.10;3.25;;;11.30;99.90;;;;;;4994274;28;20038;-80
2020/12/22 12:38:28;;;;;;;4.50;2.67;;;11.30;99.90;;;;;;4994866;28;20026;-80
2020/12/22 12:40:54;;;;;;;7.25;2.70;;;11.30;99.90;;;;;;4995760;28;20026;-80
2020/12/22 12:43:19;;;;;;;5.60;2.60;;;11.40;99.90;;;;;;4993884;28;20487;-80
2020/12/22 12:45:45;;;;;;;9.55;3.38;;;11.30;99.90;;;;;;4995405;28;20041;-80
2020/12/22 12:48:11;;;;;;;4.28;2.50;;;11.30;99.90;;;;;;4993520;28;20022;-79